CMA CGM Aristote — MRPN4 — position and weather

sailwx.info

Track history (hours):
 
Tides and Currents Weather Stations Pressure Air Temp Water Temp Dewpoint Dewpoint Depression Visibility Wind Speed Wind Dir Waves Ship Positions

CMA CGM Aristote

Last reported at 2017-Jun-25 22:28 UTC. Time now 2017-Jun-25 22:42 UTC.
Position N 28°09' W 015°25'.

Length 170 m; draft 5.4 m.

Type: Cargo ship. MMSI: 235054581.

Date/timePositionNaut miles runAvg speedWind from/ knotsBaromVisibWave heightAir tempDewpointWater temp
2017-Jun-25 22:28N 28°09' W 015°25'0 0.0
2017-Jun-25 21:58N 28°09' W 015°25'0 0.0
2017-Jun-25 21:25N 28°09' W 015°25'0 0.0
2017-Jun-25 20:58N 28°09' W 015°25'0 0.0
2017-Jun-25 20:28N 28°09' W 015°25'0 0.0
2017-Jun-25 19:58N 28°09' W 015°25'0 0.0
2017-Jun-25 19:28N 28°09' W 015°25'0 1.0
2017-Jun-25 19:01N 28°09' W 015°25'2 4.7
2017-Jun-25 18:30N 28°07' W 015°22'5 9.9
2017-Jun-25 18:00N 28°09' W 015°17'714.6
2017-Jun-25 17:30N 28°13' W 015°11'815.3
2017-Jun-25 17:00N 28°20' W 015°06'715.0
2017-Jun-25 16:30N 28°26' W 015°02'714.7
2017-Jun-25 16:00N 28°32' W 014°57'815.2
2017-Jun-25 15:30N 28°38' W 014°52'815.4
2017-Jun-25 15:00N 28°44' W 014°46'1515.3
2017-Jun-25 14:00N 28°57' W 014°36'815.3
2017-Jun-25 13:30N 29°03' W 014°31'815.3
2017-Jun-25 12:58N 29°10' W 014°25'715.0
2017-Jun-25 12:30N 29°15' W 014°21'815.2
2017-Jun-25 12:00N 29°21' W 014°16'815.5
2017-Jun-25 11:30N 29°28' W 014°10'815.6
2017-Jun-25 11:01N 29°34' W 014°05'815.4
2017-Jun-25 10:30N 29°40' W 013°60'714.9
2017-Jun-25 10:01N 29°45' W 013°53'815.0
2017-Jun-25 09:30N 29°50' W 013°47'815.3
2017-Jun-25 09:00N 29°56' W 013°41'715.2
2017-Jun-25 08:30N 30°01' W 013°34'815.0
2017-Jun-25 08:00N 30°06' W 013°28'815.1
2017-Jun-25 07:29N 30°11' W 013°21'715.1
2017-Jun-25 07:00N 30°16' W 013°15'815.2
2017-Jun-25 06:31N 30°21' W 013°09'815.1
2017-Jun-25 06:00N 30°27' W 013°02'714.9
2017-Jun-25 05:30N 30°32' W 012°56'715.0
2017-Jun-25 05:01N 30°37' W 012°50'815.5
2017-Jun-25 04:30N 30°42' W 012°43'815.3
2017-Jun-25 04:00N 30°47' W 012°36'815.3
2017-Jun-25 03:30N 30°52' W 012°30'815.3
2017-Jun-25 03:00N 30°57' W 012°23'815.3
2017-Jun-25 02:30N 31°03' W 012°17'815.0
2017-Jun-25 02:00N 31°08' W 012°10'714.9
2017-Jun-25 01:30N 31°13' W 012°04'915.1
2017-Jun-25 00:56N 31°19' W 011°56'715.1
2017-Jun-25 00:29N 31°23' W 011°51'715.0
2017-Jun-25 00:00N 31°28' W 011°45'715.0
2017-Jun-24 23:30N 31°33' W 011°38'815.1
2017-Jun-24 23:00N 31°38' W 011°32'2015.0
2017-Jun-24 21:40N 31°52' W 011°14'215.4
2017-Jun-24 21:31N 31°54' W 011°12'815.0
2017-Jun-24 21:01N 31°59' W 011°06'1015.0
2017-Jun-24 20:20N 32°06' W 010°57'515.2
2017-Jun-24 20:01N 32°09' W 010°53'815.2
2017-Jun-24 19:30N 32°15' W 010°46'715.2
2017-Jun-24 19:00N 32°20' W 010°39'815.4
2017-Jun-24 18:31N 32°25' W 010°33'815.8
2017-Jun-24 18:01N 32°30' W 010°26'815.5
2017-Jun-24 17:31N 32°36' W 010°19'815.6
2017-Jun-24 17:01N 32°41' W 010°13'815.5
2017-Jun-24 16:30N 32°46' W 010°06'815.5
2017-Jun-24 16:00N 32°52' W 009°59'815.1
2017-Jun-24 15:30N 32°57' W 009°52'715.0
2017-Jun-24 15:01N 33°01' W 009°46'1515.2
2017-Jun-24 14:00N 33°12' W 009°32'815.2
2017-Jun-24 13:29N 33°17' W 009°25'715.2
2017-Jun-24 13:00N 33°22' W 009°19'815.3
2017-Jun-24 12:30N 33°27' W 009°12'815.4
2017-Jun-24 12:00N 33°33' W 009°06'815.3
2017-Jun-24 11:30N 33°38' W 008°59'915.1
2017-Jun-24 10:55N 33°44' W 008°51'1615.1
2017-Jun-24 09:53N 33°55' W 008°37'615.0
2017-Jun-24 09:30N 33°59' W 008°32'814.9
2017-Jun-24 08:59N 34°04' W 008°26'5115.2
2017-Jun-24 05:37N 34°39' W 007°40'217.0
2017-Jun-24 05:30N 34°40' W 007°39'917.2
2017-Jun-24 05:00N 34°46' W 007°31'4317.0
2017-Jun-24 02:27N 35°16' W 006°52'1016.9
2017-Jun-24 01:51N 35°22' W 006°43'4818.0
2017-Jun-23 23:11N 35°56' W 006°00'418.0
2017-Jun-23 22:59N 35°58' W 005°56'1018.6
2017-Jun-23 22:25N 35°58' W 005°44'717.3
2017-Jun-23 22:00N 35°58' W 005°35'815.7
2017-Jun-23 21:30N 36°01' W 005°25'612.7
2017-Jun-23 21:00N 36°07' W 005°23'2 3.6
2017-Jun-23 20:31N 36°08' W 005°21'0 0.4
2017-Jun-23 19:58N 36°08' W 005°21'0 0.0
2017-Jun-23 19:30N 36°08' W 005°21'0 0.0
2017-Jun-23 19:00N 36°08' W 005°21'0 0.0
2017-Jun-23 18:30N 36°08' W 005°21'0 0.0
2017-Jun-23 18:00N 36°08' W 005°21'0 0.0
2017-Jun-23 17:30N 36°08' W 005°21'0 0.0
2017-Jun-23 16:48N 36°08' W 005°21'0 0.0
2017-Jun-23 16:30N 36°08' W 005°21'0 0.0
2017-Jun-23 16:00N 36°08' W 005°21'0 0.0
2017-Jun-23 15:30N 36°08' W 005°21'0 0.0
2017-Jun-23 15:00N 36°08' W 005°21'0 0.0
2017-Jun-23 14:30N 36°08' W 005°21'0 0.0
2017-Jun-23 13:30N 36°08' W 005°21'0 0.0
2017-Jun-23 13:00N 36°08' W 005°21'0 0.0
2017-Jun-23 12:30N 36°08' W 005°21'0 0.0
2017-Jun-23 12:00N 36°08' W 005°21'0 0.0
2017-Jun-23 11:30N 36°08' W 005°21'0 0.0
2017-Jun-23 10:55N 36°08' W 005°21'0 0.0
2017-Jun-23 10:30N 36°08' W 005°21'0 0.0
2017-Jun-23 10:00N 36°08' W 005°21'0 0.0
2017-Jun-23 08:40N 36°08' W 005°21'0 0.0
2017-Jun-23 08:26N 36°08' W 005°21'0 0.0
2017-Jun-23 07:54N 36°08' W 005°21'0 0.0
2017-Jun-23 05:09N 36°08' W 005°21'0 0.0
2017-Jun-23 04:24N 36°08' W 005°21'0 0.0
2017-Jun-23 03:13N 36°08' W 005°21'0 0.1
2017-Jun-23 03:00N 36°08' W 005°21'0 0.0
2017-Jun-23 02:27N 36°08' W 005°21'0 0.0
2017-Jun-23 02:00N 36°08' W 005°21'0 0.0
2017-Jun-23 01:30N 36°08' W 005°21'0 0.0
2017-Jun-23 01:00N 36°08' W 005°21'0 0.0
2017-Jun-23 00:30N 36°08' W 005°21'0 0.0
2017-Jun-23 00:00N 36°08' W 005°21'0 0.0
2017-Jun-22 23:30N 36°08' W 005°21'0 0.0
2017-Jun-22 23:00N 36°08' W 005°21'0 0.0
2017-Jun-22 22:30N 36°08' W 005°21'0 0.0
2017-Jun-22 22:00N 36°08' W 005°21'0 0.0
2017-Jun-22 21:30N 36°08' W 005°21'0 0.1
2017-Jun-22 19:44N 36°08' W 005°21'0 0.5
2017-Jun-22 19:27N 36°08' W 005°21'0 0.0
2017-Jun-22 19:00N 36°08' W 005°21'0 0.0
2017-Jun-22 18:27N 36°08' W 005°21'0 0.0
2017-Jun-22 18:00N 36°08' W 005°21'0 0.0
2017-Jun-22 17:30N 36°08' W 005°21'0 0.0
2017-Jun-22 17:00N 36°08' W 005°21'0 0.0
2017-Jun-22 16:30N 36°08' W 005°21'0 0.0
2017-Jun-22 16:00N 36°08' W 005°21'0 0.0
2017-Jun-22 15:30N 36°08' W 005°21'0 0.0
2017-Jun-22 15:00N 36°08' W 005°21'0 0.0
2017-Jun-22 13:53N 36°08' W 005°21'0 0.0
2017-Jun-22 13:29N 36°08' W 005°21'0 0.0
2017-Jun-22 12:57N 36°08' W 005°21'0 0.0
2017-Jun-22 11:12N 36°08' W 005°21'0 0.0
2017-Jun-22 09:31N 36°08' W 005°21'0 0.4
2017-Jun-22 09:30N 36°08' W 005°21'0 0.0
2017-Jun-22 09:00N 36°08' W 005°21'0 0.0
2017-Jun-22 08:30N 36°08' W 005°21'0 0.0
2017-Jun-22 08:00N 36°08' W 005°21'0 0.0
2017-Jun-22 07:30N 36°08' W 005°21'0 0.0
2017-Jun-22 07:00N 36°08' W 005°21'0 0.0
2017-Jun-22 06:30N 36°08' W 005°21'0 0.0
2017-Jun-22 06:00N 36°08' W 005°21'0 0.0
2017-Jun-22 05:30N 36°08' W 005°21'0 0.0
2017-Jun-22 05:00N 36°08' W 005°21'0 0.0
2017-Jun-22 04:30N 36°08' W 005°21'0 0.0
2017-Jun-22 04:00N 36°08' W 005°21'0 0.0
2017-Jun-22 03:30N 36°08' W 005°21'0 0.0
2017-Jun-22 03:00N 36°08' W 005°21'0 0.0
2017-Jun-22 02:30N 36°08' W 005°21'  
Track history (hours):
 
Tides and Currents Weather Stations Pressure Air Temp Water Temp Dewpoint Dewpoint Depression Visibility Wind Speed Wind Dir Waves Ship Positions

CMA CGM Aristote

Last reported at 2017-Jun-25 22:28 UTC. Time now 2017-Jun-25 22:42 UTC.
Position N 28°09' W 015°25'.

Length 170 m; draft 5.4 m.

Type: Cargo ship. MMSI: 235054581.

Date/timePositionNaut miles runAvg speedWind from/ knotsBaromVisibWave heightAir tempDewpointWater temp
2017-Jun-25 22:28N 28°09' W 015°25'0 0.0
2017-Jun-25 21:58N 28°09' W 015°25'0 0.0
2017-Jun-25 21:25N 28°09' W 015°25'0 0.0
2017-Jun-25 20:58N 28°09' W 015°25'0 0.0
2017-Jun-25 20:28N 28°09' W 015°25'0 0.0
2017-Jun-25 19:58N 28°09' W 015°25'0 0.0
2017-Jun-25 19:28N 28°09' W 015°25'0 1.0
2017-Jun-25 19:01N 28°09' W 015°25'2 4.7
2017-Jun-25 18:30N 28°07' W 015°22'5 9.9
2017-Jun-25 18:00N 28°09' W 015°17'714.6
2017-Jun-25 17:30N 28°13' W 015°11'815.3
2017-Jun-25 17:00N 28°20' W 015°06'715.0
2017-Jun-25 16:30N 28°26' W 015°02'714.7
2017-Jun-25 16:00N 28°32' W 014°57'815.2
2017-Jun-25 15:30N 28°38' W 014°52'815.4
2017-Jun-25 15:00N 28°44' W 014°46'1515.3
2017-Jun-25 14:00N 28°57' W 014°36'815.3
2017-Jun-25 13:30N 29°03' W 014°31'815.3
2017-Jun-25 12:58N 29°10' W 014°25'715.0
2017-Jun-25 12:30N 29°15' W 014°21'815.2
2017-Jun-25 12:00N 29°21' W 014°16'815.5
2017-Jun-25 11:30N 29°28' W 014°10'815.6
2017-Jun-25 11:01N 29°34' W 014°05'815.4
2017-Jun-25 10:30N 29°40' W 013°60'714.9
2017-Jun-25 10:01N 29°45' W 013°53'815.0
2017-Jun-25 09:30N 29°50' W 013°47'815.3
2017-Jun-25 09:00N 29°56' W 013°41'715.2
2017-Jun-25 08:30N 30°01' W 013°34'815.0
2017-Jun-25 08:00N 30°06' W 013°28'815.1
2017-Jun-25 07:29N 30°11' W 013°21'715.1
2017-Jun-25 07:00N 30°16' W 013°15'815.2
2017-Jun-25 06:31N 30°21' W 013°09'815.1
2017-Jun-25 06:00N 30°27' W 013°02'714.9
2017-Jun-25 05:30N 30°32' W 012°56'715.0
2017-Jun-25 05:01N 30°37' W 012°50'815.5
2017-Jun-25 04:30N 30°42' W 012°43'815.3
2017-Jun-25 04:00N 30°47' W 012°36'815.3
2017-Jun-25 03:30N 30°52' W 012°30'815.3
2017-Jun-25 03:00N 30°57' W 012°23'815.3
2017-Jun-25 02:30N 31°03' W 012°17'815.0
2017-Jun-25 02:00N 31°08' W 012°10'714.9
2017-Jun-25 01:30N 31°13' W 012°04'915.1
2017-Jun-25 00:56N 31°19' W 011°56'715.1
2017-Jun-25 00:29N 31°23' W 011°51'715.0
2017-Jun-25 00:00N 31°28' W 011°45'715.0
2017-Jun-24 23:30N 31°33' W 011°38'815.1
2017-Jun-24 23:00N 31°38' W 011°32'2015.0
2017-Jun-24 21:40N 31°52' W 011°14'215.4
2017-Jun-24 21:31N 31°54' W 011°12'815.0
2017-Jun-24 21:01N 31°59' W 011°06'1015.0
2017-Jun-24 20:20N 32°06' W 010°57'515.2
2017-Jun-24 20:01N 32°09' W 010°53'815.2
2017-Jun-24 19:30N 32°15' W 010°46'715.2
2017-Jun-24 19:00N 32°20' W 010°39'815.4
2017-Jun-24 18:31N 32°25' W 010°33'815.8
2017-Jun-24 18:01N 32°30' W 010°26'815.5
2017-Jun-24 17:31N 32°36' W 010°19'815.6
2017-Jun-24 17:01N 32°41' W 010°13'815.5
2017-Jun-24 16:30N 32°46' W 010°06'815.5
2017-Jun-24 16:00N 32°52' W 009°59'815.1
2017-Jun-24 15:30N 32°57' W 009°52'715.0
2017-Jun-24 15:01N 33°01' W 009°46'1515.2
2017-Jun-24 14:00N 33°12' W 009°32'815.2
2017-Jun-24 13:29N 33°17' W 009°25'715.2
2017-Jun-24 13:00N 33°22' W 009°19'815.3
2017-Jun-24 12:30N 33°27' W 009°12'815.4
2017-Jun-24 12:00N 33°33' W 009°06'815.3
2017-Jun-24 11:30N 33°38' W 008°59'915.1
2017-Jun-24 10:55N 33°44' W 008°51'1615.1
2017-Jun-24 09:53N 33°55' W 008°37'615.0
2017-Jun-24 09:30N 33°59' W 008°32'814.9
2017-Jun-24 08:59N 34°04' W 008°26'5115.2
2017-Jun-24 05:37N 34°39' W 007°40'217.0
2017-Jun-24 05:30N 34°40' W 007°39'917.2
2017-Jun-24 05:00N 34°46' W 007°31'4317.0
2017-Jun-24 02:27N 35°16' W 006°52'1016.9
2017-Jun-24 01:51N 35°22' W 006°43'4818.0
2017-Jun-23 23:11N 35°56' W 006°00'418.0
2017-Jun-23 22:59N 35°58' W 005°56'1018.6
2017-Jun-23 22:25N 35°58' W 005°44'717.3
2017-Jun-23 22:00N 35°58' W 005°35'815.7
2017-Jun-23 21:30N 36°01' W 005°25'612.7
2017-Jun-23 21:00N 36°07' W 005°23'2 3.6
2017-Jun-23 20:31N 36°08' W 005°21'0 0.4
2017-Jun-23 19:58N 36°08' W 005°21'0 0.0
2017-Jun-23 19:30N 36°08' W 005°21'0 0.0
2017-Jun-23 19:00N 36°08' W 005°21'0 0.0
2017-Jun-23 18:30N 36°08' W 005°21'0 0.0
2017-Jun-23 18:00N 36°08' W 005°21'0 0.0
2017-Jun-23 17:30N 36°08' W 005°21'0 0.0
2017-Jun-23 16:48N 36°08' W 005°21'0 0.0
2017-Jun-23 16:30N 36°08' W 005°21'0 0.0
2017-Jun-23 16:00N 36°08' W 005°21'0 0.0
2017-Jun-23 15:30N 36°08' W 005°21'0 0.0
2017-Jun-23 15:00N 36°08' W 005°21'0 0.0
2017-Jun-23 14:30N 36°08' W 005°21'0 0.0
2017-Jun-23 13:30N 36°08' W 005°21'0 0.0
2017-Jun-23 13:00N 36°08' W 005°21'0 0.0
2017-Jun-23 12:30N 36°08' W 005°21'0 0.0
2017-Jun-23 12:00N 36°08' W 005°21'0 0.0
2017-Jun-23 11:30N 36°08' W 005°21'0 0.0
2017-Jun-23 10:55N 36°08' W 005°21'0 0.0
2017-Jun-23 10:30N 36°08' W 005°21'0 0.0
2017-Jun-23 10:00N 36°08' W 005°21'0 0.0
2017-Jun-23 08:40N 36°08' W 005°21'0 0.0
2017-Jun-23 08:26N 36°08' W 005°21'0 0.0
2017-Jun-23 07:54N 36°08' W 005°21'0 0.0
2017-Jun-23 05:09N 36°08' W 005°21'0 0.0
2017-Jun-23 04:24N 36°08' W 005°21'0 0.0
2017-Jun-23 03:13N 36°08' W 005°21'0 0.1
2017-Jun-23 03:00N 36°08' W 005°21'0 0.0
2017-Jun-23 02:27N 36°08' W 005°21'0 0.0
2017-Jun-23 02:00N 36°08' W 005°21'0 0.0
2017-Jun-23 01:30N 36°08' W 005°21'0 0.0
2017-Jun-23 01:00N 36°08' W 005°21'0 0.0
2017-Jun-23 00:30N 36°08' W 005°21'0 0.0
2017-Jun-23 00:00N 36°08' W 005°21'0 0.0
2017-Jun-22 23:30N 36°08' W 005°21'0 0.0
2017-Jun-22 23:00N 36°08' W 005°21'0 0.0
2017-Jun-22 22:30N 36°08' W 005°21'0 0.0
2017-Jun-22 22:00N 36°08' W 005°21'0 0.0
2017-Jun-22 21:30N 36°08' W 005°21'0 0.1
2017-Jun-22 19:44N 36°08' W 005°21'0 0.5
2017-Jun-22 19:27N 36°08' W 005°21'0 0.0
2017-Jun-22 19:00N 36°08' W 005°21'0 0.0
2017-Jun-22 18:27N 36°08' W 005°21'0 0.0
2017-Jun-22 18:00N 36°08' W 005°21'0 0.0
2017-Jun-22 17:30N 36°08' W 005°21'0 0.0
2017-Jun-22 17:00N 36°08' W 005°21'0 0.0
2017-Jun-22 16:30N 36°08' W 005°21'0 0.0
2017-Jun-22 16:00N 36°08' W 005°21'0 0.0
2017-Jun-22 15:30N 36°08' W 005°21'0 0.0
2017-Jun-22 15:00N 36°08' W 005°21'0 0.0
2017-Jun-22 13:53N 36°08' W 005°21'0 0.0
2017-Jun-22 13:29N 36°08' W 005°21'0 0.0
2017-Jun-22 12:57N 36°08' W 005°21'0 0.0
2017-Jun-22 11:12N 36°08' W 005°21'0 0.0
2017-Jun-22 09:31N 36°08' W 005°21'0 0.4
2017-Jun-22 09:30N 36°08' W 005°21'0 0.0
2017-Jun-22 09:00N 36°08' W 005°21'0 0.0
2017-Jun-22 08:30N 36°08' W 005°21'0 0.0
2017-Jun-22 08:00N 36°08' W 005°21'0 0.0
2017-Jun-22 07:30N 36°08' W 005°21'0 0.0
2017-Jun-22 07:00N 36°08' W 005°21'0 0.0
2017-Jun-22 06:30N 36°08' W 005°21'0 0.0
2017-Jun-22 06:00N 36°08' W 005°21'0 0.0
2017-Jun-22 05:30N 36°08' W 005°21'0 0.0
2017-Jun-22 05:00N 36°08' W 005°21'0 0.0
2017-Jun-22 04:30N 36°08' W 005°21'0 0.0
2017-Jun-22 04:00N 36°08' W 005°21'0 0.0
2017-Jun-22 03:30N 36°08' W 005°21'0 0.0
2017-Jun-22 03:00N 36°08' W 005°21'0 0.0
2017-Jun-22 02:30N 36°08' W 005°21'  

Dump ship's entire track history